Time;durP1;ratioP1;P1;durP2;ratioP2;P2;SDS_P1;SDS_P2;PMS_P1;PMS_P2;Temp;Humidity;BMP_temperature;BMP_pressure;BME280_temperature;BME280_humidity;BME280_pressure;Samples;Min_cycle;Max_cycle;Signal;HPM_P1;HPM_P2
2022/08/28 00:01:03;;;;;;;10.47;3.60;;;;;;;17.89;60.99;101808.06;5166298;28;20034;-76
2022/08/28 00:03:35;;;;;;;10.77;4.20;;;;;;;17.75;60.95;101789.72;5167539;28;20051;-76
2022/08/28 00:06:06;;;;;;;11.90;3.97;;;;;;;17.79;61.38;101793.81;5168123;28;20034;-77
2022/08/28 00:08:38;;;;;;;9.43;3.70;;;;;;;17.86;60.84;101808.28;5166293;28;20097;-76
2022/08/28 00:11:09;;;;;;;13.07;4.67;;;;;;;17.85;60.90;101801.31;5169214;28;20037;-76
2022/08/28 00:13:40;;;;;;;13.73;4.00;;;;;;;17.62;61.36;101809.19;5171453;28;20124;-76
2022/08/28 00:16:12;;;;;;;10.97;4.10;;;;;;;17.60;61.93;101805.81;5171877;28;20047;-76
2022/08/28 00:18:44;;;;;;;11.50;4.53;;;;;;;17.60;61.73;101807.59;5171897;28;20026;-76
2022/08/28 00:21:15;;;;;;;11.60;3.87;;;;;;;17.47;62.38;101805.03;5171211;28;20038;-77
2022/08/28 00:23:47;;;;;;;12.90;4.67;;;;;;;17.70;61.61;101805.13;5172039;28;20034;-76
2022/08/28 00:29:08;;;;;;;17.77;4.70;;;;;;;17.31;62.91;101800.03;5170857;28;20130;-77
2022/08/28 00:31:40;;;;;;;15.73;4.53;;;;;;;17.52;62.08;101806.38;5169869;28;20031;-77
2022/08/28 00:34:11;;;;;;;12.97;4.60;;;;;;;17.49;62.25;101803.13;5170633;28;20035;-76
2022/08/28 00:36:42;;;;;;;9.03;4.00;;;;;;;17.32;62.87;101805.22;5169447;28;20031;-76
2022/08/28 00:39:14;;;;;;;13.23;4.27;;;;;;;17.19;63.28;101805.28;5169878;28;20118;-77
2022/08/28 00:41:45;;;;;;;14.73;5.17;;;;;;;17.38;62.76;101815.38;5171951;28;20035;-77
2022/08/28 00:44:24;;;;;;;11.53;4.77;;;;;;;17.49;62.74;101805.78;5169758;28;20031;-77
2022/08/28 00:46:58;;;;;;;10.50;3.70;;;;;;;16.96;64.27;101807.75;5170326;28;20803;-76
2022/08/28 00:49:32;;;;;;;15.38;5.40;;;;;;;17.27;63.44;101808.19;5171164;28;20034;-76
2022/08/28 00:52:08;;;;;;;12.77;4.30;;;;;;;17.16;63.74;101808.97;5171570;28;20514;-76
2022/08/28 00:54:44;;;;;;;14.83;5.60;;;;;;;17.15;63.56;101814.38;5169460;28;20390;-76
2022/08/28 00:57:33;;;;;;;10.43;5.37;;;;;;;17.17;63.42;101801.91;5170841;28;20038;-77
2022/08/28 01:00:11;;;;;;;10.73;4.80;;;;;;;17.12;64.15;101817.25;5170736;28;20039;-76
2022/08/28 01:02:42;;;;;;;12.53;5.37;;;;;;;16.80;64.98;101816.78;5168928;28;20065;-76
2022/08/28 01:05:16;;;;;;;15.00;4.67;;;;;;;16.78;65.21;101817.84;5169109;28;20038;-76
2022/08/28 01:07:49;;;;;;;12.13;4.57;;;;;;;16.87;65.26;101822.50;5177398;23;20086;-76
2022/08/28 01:10:23;;;;;;;12.63;4.70;;;;;;;16.79;65.29;101817.72;5171173;28;20113;-76
2022/08/28 01:12:56;;;;;;;11.88;3.67;;;;;;;16.85;65.08;101829.69;5185961;28;20018;-77
2022/08/28 01:15:34;;;;;;;11.80;4.73;;;;;;;16.90;65.13;101826.69;5168708;28;20031;-76
2022/08/28 01:18:09;;;;;;;11.80;4.83;;;;;;;16.75;65.74;101823.34;5171349;28;20023;-76
2022/08/28 01:21:27;;;;;;;12.50;4.50;;;;;;;16.79;65.14;101820.38;5170673;28;20058;-76
2022/08/28 01:24:06;;;;;;;12.10;4.87;;;;;;;16.69;66.28;101824.63;5169915;28;20042;-76
2022/08/28 01:26:38;;;;;;;15.00;5.13;;;;;;;16.95;64.72;101824.56;5170334;28;20019;-76
2022/08/28 01:29:10;;;;;;;14.63;5.37;;;;;;;16.52;66.21;101821.38;5168482;28;20029;-76
2022/08/28 01:31:42;;;;;;;17.90;5.90;;;;;;;16.52;66.20;101828.47;5170253;28;20596;-76
2022/08/28 01:34:14;;;;;;;10.00;5.10;;;;;;;16.63;65.89;101828.56;5169340;28;20085;-77
2022/08/28 01:36:47;;;;;;;10.87;4.97;;;;;;;16.52;66.34;101823.16;5170397;28;20023;-77
2022/08/28 01:39:22;;;;;;;11.67;4.97;;;;;;;16.53;66.96;101840.75;5169925;28;20505;-77
2022/08/28 01:41:55;;;;;;;12.60;5.23;;;;;;;16.74;66.31;101833.09;5170426;28;20109;-76
2022/08/28 01:44:26;;;;;;;13.93;5.10;;;;;;;16.35;67.45;101838.41;5168921;28;20031;-77
2022/08/28 01:46:58;;;;;;;13.60;4.60;;;;;;;16.40;67.63;101836.31;5170599;28;20048;-76
2022/08/28 01:49:29;;;;;;;13.43;4.53;;;;;;;16.28;67.52;101840.63;5170312;28;20023;-76
2022/08/28 01:52:01;;;;;;;9.47;4.80;;;;;;;16.24;68.63;101839.16;5170743;28;20023;-76
2022/08/28 01:54:32;;;;;;;11.43;4.43;;;;;;;16.14;68.33;101831.00;5170483;28;20030;-76
2022/08/28 01:57:04;;;;;;;12.73;4.40;;;;;;;16.24;68.47;101840.94;5169832;28;20473;-76
2022/08/28 01:59:35;;;;;;;15.60;4.23;;;;;;;16.49;67.83;101844.53;5169175;28;20035;-76
2022/08/28 02:02:09;;;;;;;13.23;3.97;;;;;;;16.35;68.71;101840.22;5170031;28;20035;-76
2022/08/28 02:04:40;;;;;;;8.63;4.50;;;;;;;16.45;67.54;101828.91;5170203;28;20110;-76
2022/08/28 02:07:11;;;;;;;12.07;4.50;;;;;;;16.31;68.56;101852.78;5169592;28;20039;-77
2022/08/28 02:09:43;;;;;;;12.97;4.97;;;;;;;16.19;68.86;101844.75;5169979;28;20040;-76
2022/08/28 02:12:14;;;;;;;13.17;4.90;;;;;;;16.40;68.75;101852.16;5169878;28;20030;-77
2022/08/28 02:14:45;;;;;;;9.20;4.17;;;;;;;16.15;69.20;101848.53;5169080;28;20356;-77
2022/08/28 02:17:17;;;;;;;11.03;4.23;;;;;;;16.23;69.17;101853.31;5169584;28;20082;-76
2022/08/28 02:19:48;;;;;;;16.27;4.90;;;;;;;16.24;69.15;101851.50;5169756;28;20065;-76
2022/08/28 02:22:19;;;;;;;14.70;4.77;;;;;;;16.40;68.54;101857.44;5170122;28;20038;-77
2022/08/28 02:24:50;;;;;;;10.23;4.10;;;;;;;16.02;70.23;101852.97;5169492;28;20076;-76
2022/08/28 02:27:22;;;;;;;12.97;5.13;;;;;;;16.05;69.71;101860.69;5169344;28;20031;-76
2022/08/28 02:29:54;;;;;;;12.93;5.40;;;;;;;16.17;69.31;101856.38;5171322;28;20110;-77
2022/08/28 02:32:26;;;;;;;14.77;5.13;;;;;;;15.91;70.16;101859.78;5169165;28;20026;-77
2022/08/28 02:34:57;;;;;;;9.80;4.60;;;;;;;16.01;70.03;101851.25;5168677;28;20058;-76
2022/08/28 02:37:28;;;;;;;12.13;4.23;;;;;;;15.84;70.47;101851.44;5168887;28;20054;-77
2022/08/28 02:40:00;;;;;;;9.47;4.33;;;;;;;15.90;70.59;101866.00;5169649;28;20258;-77
2022/08/28 02:42:31;;;;;;;16.50;4.70;;;;;;;15.86;70.61;101861.91;5169706;28;20051;-76
2022/08/28 02:45:03;;;;;;;13.63;4.13;;;;;;;15.67;71.73;101862.25;5168311;28;20276;-76
2022/08/28 02:47:34;;;;;;;10.93;4.13;;;;;;;15.88;70.97;101862.66;5184070;28;20100;-76
2022/08/28 02:50:06;;;;;;;16.13;4.00;;;;;;;15.92;70.50;101858.84;5169722;28;20041;-76
2022/08/28 02:52:38;;;;;;;15.20;4.83;;;;;;;15.90;70.47;101862.53;5169328;28;20409;-76
2022/08/28 02:55:11;;;;;;;16.63;4.37;;;;;;;15.67;71.63;101860.47;5168870;28;20031;-77
2022/08/28 02:57:44;;;;;;;12.57;4.83;;;;;;;15.78;71.40;101861.56;5168800;28;20030;-76
2022/08/28 03:00:21;;;;;;;10.80;4.47;;;;;;;15.54;73.02;101849.00;5168874;28;20031;-77
2022/08/28 03:02:53;;;;;;;14.53;5.80;;;;;;;15.60;72.18;101853.91;5169276;28;20477;-76
2022/08/28 03:05:26;;;;;;;19.23;5.33;;;;;;;15.54;72.50;101860.41;5168903;28;20018;-76
2022/08/28 03:07:57;;;;;;;15.80;5.27;;;;;;;15.52;72.25;101856.16;5168859;28;20038;-76
2022/08/28 03:10:28;;;;;;;13.00;4.47;;;;;;;15.67;71.86;101857.84;5168361;28;20034;-76
2022/08/28 03:12:59;;;;;;;11.13;4.30;;;;;;;15.51;72.19;101857.97;5170374;28;20033;-76
2022/08/28 03:15:31;;;;;;;12.40;4.77;;;;;;;15.78;71.64;101861.56;5170371;28;20033;-77
2022/08/28 03:18:02;;;;;;;12.70;4.07;;;;;;;15.39;72.72;101867.53;5168195;28;20313;-76
2022/08/28 03:20:34;;;;;;;16.60;4.97;;;;;;;15.40;72.95;101865.72;5168277;28;20069;-76
2022/08/28 03:23:25;;;;;;;14.63;4.17;;;;;;;15.61;72.15;101871.41;5169035;28;20448;-76
2022/08/28 03:26:11;;;;;;;9.83;3.70;;;;;;;15.66;71.75;101869.31;5168765;28;20119;-76
2022/08/28 03:28:46;;;;;;;8.30;4.00;;;;;;;15.21;73.81;101875.69;5167599;28;20421;-76
2022/08/28 03:31:20;;;;;;;9.90;4.60;;;;;;;15.52;72.45;101867.56;5168269;28;20034;-76
2022/08/28 03:33:52;;;;;;;13.15;4.30;;;;;;;15.45;72.75;101867.13;5168177;28;20031;-76
2022/08/28 03:36:26;;;;;;;12.70;4.33;;;;;;;15.39;73.03;101882.53;5168247;28;20078;-76
2022/08/28 03:39:01;;;;;;;12.80;4.18;;;;;;;15.29;73.96;101883.09;5170140;28;20370;-76
2022/08/28 03:41:32;;;;;;;12.40;4.13;;;;;;;15.44;73.31;101886.56;5168446;28;20050;-76
2022/08/28 03:44:04;;;;;;;10.50;3.50;;;;;;;15.42;73.54;101883.19;5167305;28;20058;-76
2022/08/28 03:46:35;;;;;;;9.47;3.50;;;;;;;15.41;73.06;101884.09;5182794;28;20121;-77
2022/08/28 03:49:06;;;;;;;11.43;4.20;;;;;;;15.14;74.15;101879.66;5168268;28;20393;-76
2022/08/28 03:51:39;;;;;;;11.97;4.30;;;;;;;15.34;73.74;101886.28;5168084;28;20090;-76
2022/08/28 03:54:10;;;;;;;9.07;3.57;;;;;;;15.18;74.58;101881.16;5168083;28;20034;-76
2022/08/28 03:56:42;;;;;;;10.00;4.50;;;;;;;15.21;74.48;101885.38;5182407;28;20022;-76
2022/08/28 03:59:13;;;;;;;9.97;3.73;;;;;;;14.93;75.75;101885.31;5165702;28;20085;-76
2022/08/28 04:01:45;;;;;;;10.37;4.77;;;;;;;14.94;75.81;101879.09;5166635;28;20031;-76
2022/08/28 04:04:16;;;;;;;10.93;4.17;;;;;;;14.96;75.86;101887.75;5168267;28;20170;-77
2022/08/28 04:06:47;;;;;;;8.37;3.90;;;;;;;15.16;75.07;101888.31;5169071;28;20057;-76
2022/08/28 04:09:19;;;;;;;10.27;4.00;;;;;;;15.19;75.21;101888.13;5168188;28;20038;-77
2022/08/28 04:11:51;;;;;;;12.33;3.93;;;;;;;15.14;75.41;101894.63;5169269;28;20113;-76
2022/08/28 04:14:22;;;;;;;9.50;3.90;;;;;;;14.92;76.53;101891.56;5167496;28;20034;-77
2022/08/28 04:16:54;;;;;;;12.27;4.37;;;;;;;14.94;76.35;101883.53;5183923;28;20034;-76
2022/08/28 04:19:25;;;;;;;12.00;4.10;;;;;;;14.65;77.38;101889.63;5168630;28;20556;-77
2022/08/28 04:21:56;;;;;;;7.17;3.90;;;;;;;15.08;75.71;101885.31;5184058;28;20027;-76
2022/08/28 04:24:28;;;;;;;13.83;4.17;;;;;;;15.04;75.89;101883.81;5168391;28;20551;-76
2022/08/28 04:26:59;;;;;;;8.93;4.07;;;;;;;15.05;75.72;101891.63;5168732;28;20520;-76
2022/08/28 04:29:30;;;;;;;12.37;4.47;;;;;;;14.83;76.82;101892.09;5167617;28;20038;-77
2022/08/28 04:32:02;;;;;;;11.63;4.70;;;;;;;14.78;77.46;101904.69;5168225;28;20041;-77
2022/08/28 04:34:36;;;;;;;14.30;4.20;;;;;;;14.82;76.86;101898.34;5168519;28;20038;-77
2022/08/28 04:37:07;;;;;;;13.60;5.82;;;;;;;14.75;77.37;101890.75;5168489;28;20034;-77
2022/08/28 04:39:39;;;;;;;11.57;5.03;;;;;;;14.76;77.25;101903.00;5183073;28;20031;-76
2022/08/28 04:42:10;;;;;;;9.37;4.60;;;;;;;14.78;77.18;101899.41;5168822;28;20051;-76
2022/08/28 04:44:41;;;;;;;11.70;4.43;;;;;;;14.66;77.81;101907.13;5166518;28;20027;-76
2022/08/28 04:47:12;;;;;;;14.43;4.93;;;;;;;14.55;78.28;101891.97;5168607;28;20472;-76
2022/08/28 04:49:44;;;;;;;9.43;4.00;;;;;;;14.70;78.84;101913.91;5165952;28;20170;-76
2022/08/28 04:52:15;;;;;;;14.13;4.70;;;;;;;14.43;79.42;101906.72;5167873;28;20037;-76
2022/08/28 04:54:47;;;;;;;12.23;4.40;;;;;;;14.45;79.91;101904.81;5166266;28;20077;-77
2022/08/28 04:57:18;;;;;;;18.57;4.77;;;;;;;14.46;79.82;101901.28;5169427;28;20027;-77
2022/08/28 04:59:49;;;;;;;11.03;4.50;;;;;;;14.42;79.68;101905.03;5170638;28;20102;-77
2022/08/28 05:02:20;;;;;;;10.87;4.57;;;;;;;14.42;79.98;101898.91;5171043;28;20492;-77
2022/08/28 05:04:52;;;;;;;12.50;4.43;;;;;;;14.67;79.22;101908.84;5186381;28;20447;-76
2022/08/28 05:07:23;;;;;;;10.90;4.17;;;;;;;14.47;79.64;101913.50;5185515;28;20509;-76
2022/08/28 05:09:54;;;;;;;9.77;4.47;;;;;;;14.67;78.95;101922.00;5171622;28;20029;-76
2022/08/28 05:12:26;;;;;;;12.27;4.67;;;;;;;14.52;79.76;101924.63;5169951;28;20031;-76
2022/08/28 05:14:57;;;;;;;13.63;4.30;;;;;;;14.36;79.93;101915.94;5171281;28;20134;-76
2022/08/28 05:17:28;;;;;;;11.27;4.60;;;;;;;14.26;81.04;101905.94;5170776;28;20089;-77
2022/08/28 05:19:59;;;;;;;13.27;4.40;;;;;;;14.35;80.64;101923.00;5171099;28;20475;-76
2022/08/28 05:22:31;;;;;;;12.00;4.40;;;;;;;14.38;80.23;101935.16;5171111;28;20026;-77
2022/08/28 05:25:03;;;;;;;15.80;4.83;;;;;;;14.24;81.22;101938.59;5170826;28;20039;-76
2022/08/28 05:27:34;;;;;;;12.33;5.23;;;;;;;14.27;81.12;101938.41;5170122;28;20023;-76
2022/08/28 05:30:06;;;;;;;8.83;5.03;;;;;;;14.21;81.71;101930.84;5170738;28;20039;-77
2022/08/28 05:32:41;;;;;;;9.97;5.23;;;;;;;14.37;81.26;101936.94;5185293;28;20033;-76
2022/08/28 05:35:12;;;;;;;9.45;4.50;;;;;;;14.28;81.16;101938.31;5171016;28;20624;-76
2022/08/28 05:37:44;;;;;;;11.67;5.00;;;;;;;14.21;81.21;101944.00;5169669;28;20031;-75
2022/08/28 05:40:17;;;;;;;12.20;4.87;;;;;;;14.23;81.49;101947.41;5170868;28;20066;-76
2022/08/28 05:42:48;;;;;;;10.70;4.50;;;;;;;14.12;82.36;101942.78;5169532;28;20069;-76
2022/08/28 05:45:21;;;;;;;11.80;4.73;;;;;;;14.22;82.10;101943.94;5170242;28;20440;-77
2022/08/28 05:47:52;;;;;;;12.83;5.20;;;;;;;14.32;81.79;101941.63;5170428;28;20026;-77
2022/08/28 05:50:24;;;;;;;15.77;5.07;;;;;;;14.06;82.82;101943.13;5184876;28;20544;-77
2022/08/28 05:52:56;;;;;;;13.60;5.03;;;;;;;14.10;83.20;101947.28;5170414;28;20034;-76
2022/08/28 05:55:27;;;;;;;15.17;5.70;;;;;;;14.14;82.95;101948.78;5170109;28;20037;-77
2022/08/28 05:58:27;;;;;;;12.93;5.33;;;;;;;14.19;82.53;101941.47;5169528;28;20525;-76
2022/08/28 06:00:50;;;;;;;14.83;5.40;;;;;;;14.25;82.48;101946.41;5170079;28;20046;-76
2022/08/28 06:03:22;;;;;;;18.17;6.27;;;;;;;14.26;83.12;101956.00;5168374;28;20027;-76
2022/08/28 06:05:54;;;;;;;13.37;5.47;;;;;;;14.23;83.27;101948.28;5170674;28;20634;-76
2022/08/28 06:08:27;;;;;;;15.23;5.57;;;;;;;14.42;82.72;101955.09;5168742;28;20126;-76
2022/08/28 06:11:01;;;;;;;16.20;5.37;;;;;;;14.49;81.80;101956.44;5169702;28;20061;-76
2022/08/28 06:13:33;;;;;;;11.80;5.30;;;;;;;14.44;82.34;101955.84;5167673;28;20054;-76
2022/08/28 06:16:04;;;;;;;10.57;4.83;;;;;;;14.41;83.39;101963.94;5168192;28;20093;-76
2022/08/28 06:18:35;;;;;;;15.20;5.30;;;;;;;14.69;82.17;101964.09;5170274;28;20066;-75
2022/08/28 06:21:07;;;;;;;10.60;4.33;;;;;;;14.81;81.01;101967.81;5169636;28;20037;-75
2022/08/28 06:23:38;;;;;;;15.50;5.97;;;;;;;14.76;81.84;101961.03;5169800;28;20183;-75
2022/08/28 06:26:10;;;;;;;13.07;4.97;;;;;;;14.82;82.15;101964.25;5170293;28;20066;-75
2022/08/28 06:28:41;;;;;;;15.27;4.40;;;;;;;14.88;81.64;101966.53;5168727;28;20035;-74
2022/08/28 06:31:12;;;;;;;14.53;5.03;;;;;;;14.56;81.95;101927.91;5169712;28;20057;-75
2022/08/28 06:33:45;;;;;;;7.70;3.87;;;;;;;14.93;81.31;101966.22;5169224;28;20106;-75
2022/08/28 06:36:16;;;;;;;10.83;5.00;;;;;;;14.91;81.97;101968.09;5169970;28;20138;-75
2022/08/28 06:38:47;;;;;;;10.40;5.03;;;;;;;14.89;82.19;101965.56;5167964;28;20133;-75
2022/08/28 06:41:19;;;;;;;10.97;4.50;;;;;;;14.99;81.90;101979.88;5169215;28;20031;-77
2022/08/28 06:43:50;;;;;;;13.30;4.93;;;;;;;15.01;82.53;101979.78;5174764;28;20548;-86
2022/08/28 06:46:22;;;;;;;17.33;4.90;;;;;;;15.00;83.12;101984.25;5167599;28;20034;-85
2022/08/28 06:48:53;;;;;;;15.27;6.73;;;;;;;14.98;82.24;101972.06;5169241;28;20031;-84
2022/08/28 06:51:24;;;;;;;12.63;4.27;;;;;;;15.10;82.28;101989.81;5171492;28;20037;-83
2022/08/28 06:53:56;;;;;;;13.00;5.13;;;;;;;15.15;81.58;101992.16;5167930;28;20142;-84
2022/08/28 06:56:28;;;;;;;18.87;6.17;;;;;;;15.16;82.78;101991.22;5168968;28;20093;-84
2022/08/28 06:58:59;;;;;;;15.70;4.87;;;;;;;15.19;81.23;101982.25;5182322;28;20110;-83
2022/08/28 07:01:34;;;;;;;13.47;4.70;;;;;;;15.34;80.21;101988.41;5170260;28;20099;-83
2022/08/28 07:04:09;;;;;;;14.33;5.03;;;;;;;15.44;80.39;101986.88;5166267;28;20042;-83
2022/08/28 07:06:44;;;;;;;;;;;;;;;15.58;78.55;101987.78;5169128;28;20023;-81
2022/08/28 07:09:15;;;;;;;15.95;5.05;;;;;;;15.56;81.20;101979.13;5167742;28;19932;-82
2022/08/28 07:11:46;;;;;;;17.60;6.07;;;;;;;15.61;79.63;101974.41;5167346;28;20034;-80
2022/08/28 07:14:18;;;;;;;10.23;4.50;;;;;;;15.75;79.70;101983.22;5181755;28;20033;-81
2022/08/28 07:16:49;;;;;;;14.43;4.10;;;;;;;15.88;77.73;101983.28;5168557;28;20073;-82
2022/08/28 07:19:20;;;;;;;11.13;4.00;;;;;;;15.94;78.43;101989.03;5168783;28;20031;-76
2022/08/28 07:21:52;;;;;;;12.87;4.07;;;;;;;16.11;76.59;101984.47;5168957;28;20073;-77
2022/08/28 07:24:23;;;;;;;12.83;4.13;;;;;;;16.32;76.63;101982.22;5166188;28;20026;-81
2022/08/28 07:26:54;;;;;;;10.10;3.97;;;;;;;16.50;76.06;101983.72;5168115;28;20031;-81
2022/08/28 07:29:26;;;;;;;19.90;4.53;;;;;;;16.67;74.24;101979.94;5167013;28;20027;-82
2022/08/28 07:31:58;;;;;;;13.40;4.07;;;;;;;16.94;74.46;101981.66;5168637;28;20637;-82
2022/08/28 07:34:30;;;;;;;14.30;4.37;;;;;;;17.06;71.66;101985.25;5168046;28;20035;-81
2022/08/28 07:37:03;;;;;;;12.60;4.67;;;;;;;17.42;72.07;101986.28;5168185;28;20501;-81
2022/08/28 07:39:34;;;;;;;12.37;4.00;;;;;;;17.76;68.87;101993.63;5166979;28;20035;-81
2022/08/28 07:42:05;;;;;;;13.93;3.17;;;;;;;18.27;67.23;101990.88;5167299;28;20054;-81
2022/08/28 07:44:49;;;;;;;17.63;3.77;;;;;;;18.59;64.41;101989.38;5166716;28;20023;-81
2022/08/28 07:47:22;;;;;;;15.90;3.87;;;;;;;19.23;62.49;101989.84;5168117;28;20035;-80
2022/08/28 07:49:53;;;;;;;10.60;2.97;;;;;;;19.95;60.22;102006.25;5168429;28;20042;-81
2022/08/28 07:52:27;;;;;;;11.13;2.70;;;;;;;20.53;57.38;101998.91;5167777;28;20197;-81
2022/08/28 07:54:59;;;;;;;10.75;3.53;;;;;;;21.22;56.41;102001.13;5166806;28;20018;-81
2022/08/28 07:57:30;;;;;;;10.52;2.78;;;;;;;21.50;54.26;102001.31;5166518;28;20027;-81
2022/08/28 08:00:03;;;;;;;8.68;3.03;;;;;;;22.28;52.74;101992.72;5168196;28;20027;-81
2022/08/28 08:02:35;;;;;;;9.03;2.70;;;;;;;23.04;50.14;102006.22;5167329;28;20035;-81
2022/08/28 08:05:09;;;;;;;8.45;2.55;;;;;;;23.37;48.95;102003.94;5166740;28;20049;-82
2022/08/28 08:07:40;;;;;;;;;;;;;;;24.33;53.91;102016.94;5168064;28;20047;-82
2022/08/28 08:10:14;;;;;;;9.50;3.33;;;;;;;23.83;46.46;102011.13;5166561;28;19914;-82
2022/08/28 08:12:45;;;;;;;7.57;2.35;;;;;;;24.10;45.52;102008.53;5166792;28;20113;-82
2022/08/28 08:15:18;;;;;;;7.10;2.50;;;;;;;24.20;45.91;102008.47;5166870;28;20031;-83
2022/08/28 08:17:49;;;;;;;9.35;2.13;;;;;;;24.63;43.90;102012.16;5168158;28;20046;-81
2022/08/28 08:20:20;;;;;;;8.90;2.17;;;;;;;24.11;43.96;102029.78;5166038;28;20401;-81
2022/08/28 08:22:51;;;;;;;9.40;2.80;;;;;;;23.36;44.78;102015.63;5168211;28;20410;-81
2022/08/28 08:25:23;;;;;;;8.40;2.45;;;;;;;23.40;44.80;102021.50;5167944;28;20034;-80
2022/08/28 08:27:54;;;;;;;9.27;2.08;;;;;;;23.35;44.81;102015.78;5167860;28;20039;-81
2022/08/28 08:30:28;;;;;;;9.50;2.40;;;;;;;23.38;45.01;102024.34;5183100;28;20038;-84
2022/08/28 08:33:00;;;;;;;8.13;2.20;;;;;;;23.78;43.75;102024.13;5170358;28;20485;-83
2022/08/28 08:35:31;;;;;;;11.90;2.10;;;;;;;23.18;44.41;102024.41;5172088;28;20041;-79
2022/08/28 08:38:02;;;;;;;5.15;2.08;;;;;;;22.98;44.97;102028.16;5186955;28;20035;-78
2022/08/28 08:40:34;;;;;;;8.65;2.58;;;;;;;23.11;44.60;102031.34;5172243;28;20038;-80
2022/08/28 08:43:07;;;;;;;9.73;2.50;;;;;;;23.08;44.99;102018.28;5171307;28;20030;-78
2022/08/28 08:45:40;;;;;;;14.07;3.33;;;;;;;23.89;44.77;102023.94;5172144;28;20405;-80
2022/08/28 08:48:39;;;;;;;6.35;2.10;;;;;;;25.56;44.41;102016.09;5172399;28;20093;-81
2022/08/28 08:51:21;;;;;;;13.32;3.03;;;;;;;25.32;42.80;102010.53;5169953;28;20042;-83
2022/08/28 08:54:04;;;;;;;7.20;2.40;;;;;;;26.37;41.94;102017.41;5187344;28;20038;-84
2022/08/28 08:56:35;;;;;;;11.07;2.30;;;;;;;26.53;39.07;102011.19;5171242;28;20489;-85
2022/08/28 08:59:13;;;;;;;8.90;2.05;;;;;;;27.24;38.79;102012.31;5170633;28;20037;-84
2022/08/28 09:01:55;;;;;;;9.05;2.00;;;;;;;28.05;35.85;102013.03;5167729;28;20062;-81
2022/08/28 09:04:41;;;;;;;7.85;1.75;;;;;;;28.91;35.28;102017.22;5171229;28;20022;-81
2022/08/28 09:07:16;;;;;;;9.32;2.33;;;;;;;29.06;34.46;102014.53;5171014;28;20085;-81
2022/08/28 09:09:54;;;;;;;4.93;2.10;;;;;;;30.11;33.91;102012.53;5171356;28;20085;-80
2022/08/28 09:12:33;;;;;;;7.60;2.22;;;;;;;29.56;33.13;102021.13;5184537;28;20035;-80
2022/08/28 09:15:39;;;;;;;9.27;1.80;;;;;;;28.95;35.58;102020.38;5170753;28;20035;-81
2022/08/28 09:18:30;;;;;;;7.10;1.92;;;;;;;29.46;34.14;102008.78;5170385;28;20047;-81
2022/08/28 09:21:02;;;;;;;7.50;2.15;;;;;;;29.43;31.80;102011.84;5200759;28;20037;-80
2022/08/28 09:23:33;;;;;;;7.88;2.10;;;;;;;30.10;31.98;102024.38;5174591;28;20030;-80
2022/08/28 09:26:10;;;;;;;6.55;2.72;;;;;;;30.07;30.99;102020.16;5170660;28;20027;-80
2022/08/28 09:28:43;;;;;;;6.05;2.08;;;;;;;29.78;30.64;102013.91;5184459;28;20027;-81
2022/08/28 09:31:30;;;;;;;8.88;1.75;;;;;;;30.37;30.98;102013.78;5170339;28;20023;-81
2022/08/28 09:34:18;;;;;;;8.05;2.30;;;;;;;31.69;31.28;102007.72;5170866;28;20023;-81
2022/08/28 09:36:51;;;;;;;8.45;2.53;;;;;;;31.58;29.24;102007.28;5171458;28;20093;-81
2022/08/28 09:39:30;;;;;;;;;;;;;;;33.73;30.84;102014.28;5170570;28;20119;-81
2022/08/28 09:45:12;;;;;;;4.75;1.83;;;;;;;32.17;27.98;102022.97;5170629;28;20039;-80
2022/08/28 09:47:53;;;;;;;4.93;1.70;;;;;;;32.42;29.00;102022.31;5169943;28;20041;-77
2022/08/28 09:50:35;;;;;;;13.77;2.58;;;;;;;33.18;28.28;102012.94;5170317;28;20039;-81
2022/08/28 09:53:12;;;;;;;7.00;2.33;;;;;;;33.38;26.65;102006.53;5170073;28;20636;-81
2022/08/28 09:56:05;;;;;;;5.03;1.90;;;;;;;33.61;25.47;102018.72;5168558;28;20089;-81
2022/08/28 09:58:39;;;;;;;4.50;1.53;;;;;;;32.32;27.49;102022.75;5169279;28;20035;-80
2022/08/28 10:01:20;;;;;;;6.72;1.75;;;;;;;32.50;26.76;102028.56;5170008;28;20358;-81
2022/08/28 10:04:03;;;;;;;6.47;2.08;;;;;;;31.97;27.57;102023.78;5170560;28;20117;-80
2022/08/28 10:06:35;;;;;;;4.43;1.85;;;;;;;31.51;27.50;102019.97;5169658;28;20050;-80
2022/08/28 10:09:18;;;;;;;6.68;2.03;;;;;;;32.05;26.44;102028.16;5170592;28;20113;-80
2022/08/28 10:12:11;;;;;;;6.57;1.63;;;;;;;32.52;26.73;102038.13;5183876;28;20429;-80
2022/08/28 10:15:02;;;;;;;5.82;1.77;;;;;;;32.65;27.01;102031.03;5169802;28;20039;-82
2022/08/28 10:18:14;;;;;;;5.15;1.75;;;;;;;33.11;26.41;102029.25;5169660;28;20425;-81
2022/08/28 10:20:58;;;;;;;3.00;1.50;;;;;;;33.86;25.38;102029.66;5184758;28;20081;-81
2022/08/28 10:23:41;;;;;;;4.25;1.45;;;;;;;33.08;24.92;102016.91;5169743;28;20039;-80
2022/08/28 10:26:26;;;;;;;5.90;2.50;;;;;;;34.48;24.72;102016.34;5174724;28;20195;-80
2022/08/28 10:29:18;;;;;;;8.10;1.98;;;;;;;33.78;25.24;102017.16;5169681;28;20054;-81
2022/08/28 10:32:15;;;;;;;6.20;1.80;;;;;;;34.85;24.96;102023.69;5170398;28;20039;-80
2022/08/28 10:35:01;;;;;;;6.65;1.77;;;;;;;33.92;25.36;102028.75;5169898;28;20397;-80
2022/08/28 10:37:40;;;;;;;7.55;2.40;;;;;;;32.26;26.68;102014.63;5169333;28;20085;-81
2022/08/28 10:40:25;;;;;;;4.85;1.75;;;;;;;32.18;26.97;102021.09;5170323;28;20041;-81
2022/08/28 10:43:05;;;;;;;6.00;2.10;;;;;;;30.91;27.58;102019.53;5167633;28;20085;-82
2022/08/28 10:45:38;;;;;;;9.23;2.03;;;;;;;30.38;28.08;102023.56;5166978;28;20031;-80
2022/08/28 10:48:19;;;;;;;5.55;1.77;;;;;;;30.86;28.27;102024.69;5169337;28;20068;-81
2022/08/28 10:50:59;;;;;;;7.53;1.77;;;;;;;31.10;28.17;102013.59;5184485;28;20571;-81
2022/08/28 10:53:38;;;;;;;4.07;1.42;;;;;;;30.67;28.45;102010.84;5169321;28;20037;-81
2022/08/28 10:56:16;;;;;;;5.45;2.20;;;;;;;31.32;27.70;102010.72;5170855;28;20033;-80
2022/08/28 10:58:50;;;;;;;6.43;1.80;;;;;;;32.32;26.18;102006.50;5188139;28;20034;-80
2022/08/28 11:01:29;;;;;;;7.78;1.75;;;;;;;30.96;27.87;102015.41;5189047;28;20038;-82
2022/08/28 11:04:07;;;;;;;6.75;1.90;;;;;;;31.17;27.51;102005.50;5177216;28;20019;-81
2022/08/28 11:07:10;;;;;;;4.15;1.58;;;;;;;31.70;27.56;102014.81;5168277;28;20426;-81
2022/08/28 11:09:47;;;;;;;5.28;1.27;;;;;;;30.41;28.70;102015.06;5168461;28;20050;-82
2022/08/28 11:12:18;;;;;;;5.78;1.80;;;;;;;30.10;28.15;102023.53;5167556;28;20528;-83
2022/08/28 11:14:50;;;;;;;5.05;1.77;;;;;;;29.13;29.94;102016.50;5169369;28;20121;-83
2022/08/28 11:17:21;;;;;;;6.28;1.88;;;;;;;29.26;30.33;102019.34;5166556;28;20030;-84
2022/08/28 11:20:08;;;;;;;4.25;1.95;;;;;;;28.99;30.56;102024.41;5168265;28;20496;-86
2022/08/28 11:22:50;;;;;;;8.15;1.70;;;;;;;28.92;31.04;102015.38;5168680;28;20026;-84
2022/08/28 11:25:25;;;;;;;6.03;1.80;;;;;;;29.14;29.89;102013.59;5168765;28;20057;-86
2022/08/28 11:28:26;;;;;;;4.25;1.60;;;;;;;29.89;29.91;102020.66;5166972;28;20027;-86
2022/08/28 11:30:57;;;;;;;3.95;1.77;;;;;;;30.15;29.33;102021.06;5166714;28;20062;-85
2022/08/28 11:33:47;;;;;;;5.72;1.75;;;;;;;29.66;29.78;102016.28;5177368;28;20069;-86
2022/08/28 11:36:21;;;;;;;6.63;2.33;;;;;;;30.41;27.71;102008.81;5188327;28;20089;-86
2022/08/28 11:38:55;;;;;;;5.85;1.52;;;;;;;29.57;29.15;102010.13;5180982;28;20031;-85
2022/08/28 11:41:35;;;;;;;4.95;1.70;;;;;;;29.02;29.68;102004.31;5182089;28;20061;-85
2022/08/28 11:44:12;;;;;;;5.72;1.45;;;;;;;28.90;30.06;102012.03;5168341;28;20070;-85
2022/08/28 11:46:52;;;;;;;6.63;1.83;;;;;;;29.65;29.42;102011.94;5186120;28;20045;-85
2022/08/28 11:49:29;;;;;;;3.28;1.45;;;;;;;29.93;29.01;102004.91;5202957;28;20474;-85
2022/08/28 11:52:35;;;;;;;6.78;2.00;;;;;;;30.26;29.04;102011.63;5188606;28;20034;-86
2022/08/28 11:55:24;;;;;;;5.95;1.65;;;;;;;29.82;29.05;102011.66;5203059;28;20037;-85
2022/08/28 11:57:55;;;;;;;5.07;1.60;;;;;;;29.39;29.01;102012.44;5206037;28;20389;-85
2022/08/28 12:00:45;;;;;;;5.60;1.27;;;;;;;29.26;29.97;102013.94;5187953;28;20030;-85
2022/08/28 12:03:35;;;;;;;3.65;1.52;;;;;;;28.63;29.83;102020.56;5186173;28;20062;-85